sensor_id;sensor_type;location;lat;lon;timestamp;temperature;humidity
5429;DHT22;2737;52.386;9.980;2023-04-07T00:01:43;4.80;99.90
5429;DHT22;2737;52.386;9.980;2023-04-07T00:04:12;4.80;99.90
5429;DHT22;2737;52.386;9.980;2023-04-07T00:06:39;4.80;99.90
5429;DHT22;2737;52.386;9.980;2023-04-07T00:09:08;4.70;99.90
5429;DHT22;2737;52.386;9.980;2023-04-07T00:11:35;4.70;99.90
5429;DHT22;2737;52.386;9.980;2023-04-07T00:14:02;4.60;99.90
5429;DHT22;2737;52.386;9.980;2023-04-07T00:16:29;4.60;99.90
5429;DHT22;2737;52.386;9.980;2023-04-07T00:18:56;4.60;99.90
5429;DHT22;2737;52.386;9.980;2023-04-07T00:21:24;4.50;99.90
5429;DHT22;2737;52.386;9.980;2023-04-07T00:23:52;4.50;99.90
5429;DHT22;2737;52.386;9.980;2023-04-07T00:26:18;4.50;99.90
5429;DHT22;2737;52.386;9.980;2023-04-07T00:28:45;4.40;99.90
5429;DHT22;2737;52.386;9.980;2023-04-07T00:31:13;4.40;99.90
5429;DHT22;2737;52.386;9.980;2023-04-07T00:33:40;4.30;99.90
5429;DHT22;2737;52.386;9.980;2023-04-07T00:36:07;4.30;99.90
5429;DHT22;2737;52.386;9.980;2023-04-07T00:38:35;4.30;99.90
5429;DHT22;2737;52.386;9.980;2023-04-07T00:41:02;4.30;99.90
5429;DHT22;2737;52.386;9.980;2023-04-07T00:43:29;4.20;99.90
5429;DHT22;2737;52.386;9.980;2023-04-07T00:45:56;4.20;99.90
5429;DHT22;2737;52.386;9.980;2023-04-07T00:48:24;4.20;99.90
5429;DHT22;2737;52.386;9.980;2023-04-07T00:50:51;4.20;99.90
5429;DHT22;2737;52.386;9.980;2023-04-07T00:53:18;4.10;99.90
5429;DHT22;2737;52.386;9.980;2023-04-07T00:55:47;4.10;99.90
5429;DHT22;2737;52.386;9.980;2023-04-07T00:58:14;4.10;99.90
5429;DHT22;2737;52.386;9.980;2023-04-07T01:00:48;4.00;99.90
5429;DHT22;2737;52.386;9.980;2023-04-07T01:03:19;3.90;99.90
5429;DHT22;2737;52.386;9.980;2023-04-07T01:05:53;3.80;99.90
5429;DHT22;2737;52.386;9.980;2023-04-07T01:08:23;3.80;99.90
5429;DHT22;2737;52.386;9.980;2023-04-07T01:11:02;3.80;99.90
5429;DHT22;2737;52.386;9.980;2023-04-07T01:13:35;3.70;99.90
5429;DHT22;2737;52.386;9.980;2023-04-07T01:16:04;3.70;99.90
5429;DHT22;2737;52.386;9.980;2023-04-07T01:18:36;3.70;99.90
5429;DHT22;2737;52.386;9.980;2023-04-07T01:21:10;3.70;99.90
5429;DHT22;2737;52.386;9.980;2023-04-07T01:24:02;3.70;99.90
5429;DHT22;2737;52.386;9.980;2023-04-07T01:26:32;3.70;99.90
5429;DHT22;2737;52.386;9.980;2023-04-07T01:29:32;3.60;99.90
5429;DHT22;2737;52.386;9.980;2023-04-07T01:32:03;3.60;99.90
5429;DHT22;2737;52.386;9.980;2023-04-07T01:34:31;3.60;99.90
5429;DHT22;2737;52.386;9.980;2023-04-07T01:37:00;3.50;99.90
5429;DHT22;2737;52.386;9.980;2023-04-07T01:39:28;3.50;99.90
5429;DHT22;2737;52.386;9.980;2023-04-07T01:41:56;3.50;99.90
5429;DHT22;2737;52.386;9.980;2023-04-07T01:44:27;3.50;99.90
5429;DHT22;2737;52.386;9.980;2023-04-07T01:46:56;3.50;99.90
5429;DHT22;2737;52.386;9.980;2023-04-07T01:49:24;3.40;99.90
5429;DHT22;2737;52.386;9.980;2023-04-07T01:51:52;3.40;99.90
5429;DHT22;2737;52.386;9.980;2023-04-07T01:54:19;3.40;99.90
5429;DHT22;2737;52.386;9.980;2023-04-07T01:56:47;3.40;99.90
5429;DHT22;2737;52.386;9.980;2023-04-07T01:59:14;3.30;99.90
5429;DHT22;2737;52.386;9.980;2023-04-07T02:01:41;3.30;99.90
5429;DHT22;2737;52.386;9.980;2023-04-07T02:04:11;3.30;99.90
5429;DHT22;2737;52.386;9.980;2023-04-07T02:06:45;3.30;99.90
5429;DHT22;2737;52.386;9.980;2023-04-07T02:09:15;3.30;99.90
5429;DHT22;2737;52.386;9.980;2023-04-07T02:11:43;3.20;99.90
5429;DHT22;2737;52.386;9.980;2023-04-07T02:14:11;3.20;99.90
5429;DHT22;2737;52.386;9.980;2023-04-07T02:16:40;3.20;99.90
5429;DHT22;2737;52.386;9.980;2023-04-07T02:19:09;3.20;99.90
5429;DHT22;2737;52.386;9.980;2023-04-07T02:21:39;3.20;99.90
5429;DHT22;2737;52.386;9.980;2023-04-07T02:24:06;3.20;99.90
5429;DHT22;2737;52.386;9.980;2023-04-07T02:26:34;3.10;99.90
5429;DHT22;2737;52.386;9.980;2023-04-07T02:29:02;3.10;99.90
5429;DHT22;2737;52.386;9.980;2023-04-07T02:31:29;3.00;99.90
5429;DHT22;2737;52.386;9.980;2023-04-07T02:33:56;3.00;99.90
5429;DHT22;2737;52.386;9.980;2023-04-07T02:36:24;2.90;99.90
5429;DHT22;2737;52.386;9.980;2023-04-07T02:38:52;2.90;99.90
5429;DHT22;2737;52.386;9.980;2023-04-07T02:41:19;2.90;99.90
5429;DHT22;2737;52.386;9.980;2023-04-07T02:43:46;2.80;99.90
5429;DHT22;2737;52.386;9.980;2023-04-07T02:46:13;2.80;99.90
5429;DHT22;2737;52.386;9.980;2023-04-07T02:48:40;2.80;99.90
5429;DHT22;2737;52.386;9.980;2023-04-07T02:51:07;2.80;99.90
5429;DHT22;2737;52.386;9.980;2023-04-07T02:53:35;2.80;99.90
5429;DHT22;2737;52.386;9.980;2023-04-07T02:56:03;2.80;99.90
5429;DHT22;2737;52.386;9.980;2023-04-07T02:58:30;2.70;99.90
5429;DHT22;2737;52.386;9.980;2023-04-07T03:00:57;2.70;99.90
5429;DHT22;2737;52.386;9.980;2023-04-07T03:03:24;2.70;99.90
5429;DHT22;2737;52.386;9.980;2023-04-07T03:05:51;2.60;99.90
5429;DHT22;2737;52.386;9.980;2023-04-07T03:08:19;2.50;99.90
5429;DHT22;2737;52.386;9.980;2023-04-07T03:10:47;2.50;99.90
5429;DHT22;2737;52.386;9.980;2023-04-07T03:13:14;2.50;99.90
5429;DHT22;2737;52.386;9.980;2023-04-07T03:15:44;2.50;99.90
5429;DHT22;2737;52.386;9.980;2023-04-07T03:18:12;2.50;99.90
5429;DHT22;2737;52.386;9.980;2023-04-07T03:20:39;2.50;99.90
5429;DHT22;2737;52.386;9.980;2023-04-07T03:23:06;2.60;99.90
5429;DHT22;2737;52.386;9.980;2023-04-07T03:25:33;2.60;99.90
5429;DHT22;2737;52.386;9.980;2023-04-07T03:28:02;2.60;99.90
5429;DHT22;2737;52.386;9.980;2023-04-07T03:30:29;2.60;99.90
5429;DHT22;2737;52.386;9.980;2023-04-07T03:32:56;2.60;99.90
5429;DHT22;2737;52.386;9.980;2023-04-07T03:35:23;2.60;99.90
5429;DHT22;2737;52.386;9.980;2023-04-07T03:37:51;2.60;99.90
5429;DHT22;2737;52.386;9.980;2023-04-07T03:40:18;2.60;99.90
5429;DHT22;2737;52.386;9.980;2023-04-07T03:42:45;2.60;99.90
5429;DHT22;2737;52.386;9.980;2023-04-07T03:45:14;2.60;99.90
5429;DHT22;2737;52.386;9.980;2023-04-07T03:47:41;2.60;99.90
5429;DHT22;2737;52.386;9.980;2023-04-07T03:50:09;2.60;99.90
5429;DHT22;2737;52.386;9.980;2023-04-07T03:52:36;2.60;99.90
5429;DHT22;2737;52.386;9.980;2023-04-07T03:55:04;2.60;99.90
5429;DHT22;2737;52.386;9.980;2023-04-07T03:57:31;2.50;99.90
5429;DHT22;2737;52.386;9.980;2023-04-07T03:59:58;2.50;99.90
5429;DHT22;2737;52.386;9.980;2023-04-07T04:02:26;2.50;99.90
5429;DHT22;2737;52.386;9.980;2023-04-07T04:04:53;2.50;99.90
5429;DHT22;2737;52.386;9.980;2023-04-07T04:07:21;2.50;99.90
5429;DHT22;2737;52.386;9.980;2023-04-07T04:09:48;2.50;99.90
5429;DHT22;2737;52.386;9.980;2023-04-07T04:12:15;2.50;99.90
5429;DHT22;2737;52.386;9.980;2023-04-07T04:14:42;2.50;99.90
5429;DHT22;2737;52.386;9.980;2023-04-07T04:17:09;2.50;99.90
5429;DHT22;2737;52.386;9.980;2023-04-07T04:19:37;2.60;99.90
5429;DHT22;2737;52.386;9.980;2023-04-07T04:22:04;2.60;99.90
5429;DHT22;2737;52.386;9.980;2023-04-07T04:24:31;2.60;99.90
5429;DHT22;2737;52.386;9.980;2023-04-07T04:26:58;2.50;99.90
5429;DHT22;2737;52.386;9.980;2023-04-07T04:29:26;2.50;99.90
5429;DHT22;2737;52.386;9.980;2023-04-07T04:31:53;2.40;99.90
5429;DHT22;2737;52.386;9.980;2023-04-07T04:34:20;2.50;99.90
5429;DHT22;2737;52.386;9.980;2023-04-07T04:36:48;2.40;99.90
5429;DHT22;2737;52.386;9.980;2023-04-07T04:39:15;2.40;99.90
5429;DHT22;2737;52.386;9.980;2023-04-07T04:41:43;2.40;99.90
5429;DHT22;2737;52.386;9.980;2023-04-07T04:44:10;2.40;99.90
5429;DHT22;2737;52.386;9.980;2023-04-07T04:46:37;2.30;99.90
5429;DHT22;2737;52.386;9.980;2023-04-07T04:49:04;2.30;99.90
5429;DHT22;2737;52.386;9.980;2023-04-07T04:51:31;2.30;99.90
5429;DHT22;2737;52.386;9.980;2023-04-07T04:54:00;2.30;99.90
5429;DHT22;2737;52.386;9.980;2023-04-07T04:56:28;2.30;99.90
5429;DHT22;2737;52.386;9.980;2023-04-07T04:58:55;2.30;99.90
5429;DHT22;2737;52.386;9.980;2023-04-07T05:01:22;2.30;99.90
5429;DHT22;2737;52.386;9.980;2023-04-07T05:03:49;2.30;99.90
5429;DHT22;2737;52.386;9.980;2023-04-07T05:06:16;2.30;99.90
5429;DHT22;2737;52.386;9.980;2023-04-07T05:08:43;2.40;99.90
5429;DHT22;2737;52.386;9.980;2023-04-07T05:11:11;2.40;99.90
5429;DHT22;2737;52.386;9.980;2023-04-07T05:13:38;2.50;99.90
5429;DHT22;2737;52.386;9.980;2023-04-07T05:16:06;2.50;99.90
5429;DHT22;2737;52.386;9.980;2023-04-07T05:18:33;2.50;99.90
5429;DHT22;2737;52.386;9.980;2023-04-07T05:21:00;2.50;99.90
5429;DHT22;2737;52.386;9.980;2023-04-07T05:23:27;2.60;99.90
5429;DHT22;2737;52.386;9.980;2023-04-07T05:25:54;2.60;99.90
5429;DHT22;2737;52.386;9.980;2023-04-07T05:28:23;2.70;99.90
5429;DHT22;2737;52.386;9.980;2023-04-07T05:30:50;2.80;99.90
5429;DHT22;2737;52.386;9.980;2023-04-07T05:33:17;2.80;99.90
5429;DHT22;2737;52.386;9.980;2023-04-07T05:35:44;2.90;99.90
5429;DHT22;2737;52.386;9.980;2023-04-07T05:38:11;3.00;99.90
5429;DHT22;2737;52.386;9.980;2023-04-07T05:40:39;3.10;99.90
5429;DHT22;2737;52.386;9.980;2023-04-07T05:43:06;3.20;99.90
5429;DHT22;2737;52.386;9.980;2023-04-07T05:45:35;3.30;99.90
5429;DHT22;2737;52.386;9.980;2023-04-07T05:48:02;3.40;99.90
5429;DHT22;2737;52.386;9.980;2023-04-07T05:50:29;3.50;99.90
5429;DHT22;2737;52.386;9.980;2023-04-07T05:52:56;3.60;99.90
5429;DHT22;2737;52.386;9.980;2023-04-07T05:55:23;3.70;99.90
5429;DHT22;2737;52.386;9.980;2023-04-07T05:57:50;3.80;99.90
5429;DHT22;2737;52.386;9.980;2023-04-07T06:00:18;3.80;99.90
5429;DHT22;2737;52.386;9.980;2023-04-07T06:02:46;4.00;99.90
5429;DHT22;2737;52.386;9.980;2023-04-07T06:05:13;4.10;99.90
5429;DHT22;2737;52.386;9.980;2023-04-07T06:07:40;4.20;99.90
5429;DHT22;2737;52.386;9.980;2023-04-07T06:10:08;4.20;99.90
5429;DHT22;2737;52.386;9.980;2023-04-07T06:12:35;4.30;99.90
5429;DHT22;2737;52.386;9.980;2023-04-07T06:15:02;4.30;99.90
5429;DHT22;2737;52.386;9.980;2023-04-07T06:17:29;4.40;99.90
5429;DHT22;2737;52.386;9.980;2023-04-07T06:19:57;4.40;99.90
5429;DHT22;2737;52.386;9.980;2023-04-07T06:22:24;4.50;99.90
5429;DHT22;2737;52.386;9.980;2023-04-07T06:24:51;4.60;99.90
5429;DHT22;2737;52.386;9.980;2023-04-07T06:27:18;4.60;99.90
5429;DHT22;2737;52.386;9.980;2023-04-07T06:29:47;4.60;99.90
5429;DHT22;2737;52.386;9.980;2023-04-07T06:32:14;4.70;99.90
5429;DHT22;2737;52.386;9.980;2023-04-07T06:34:41;4.80;99.90
5429;DHT22;2737;52.386;9.980;2023-04-07T06:37:10;4.90;99.90
5429;DHT22;2737;52.386;9.980;2023-04-07T06:39:37;4.90;99.90
5429;DHT22;2737;52.386;9.980;2023-04-07T06:42:04;4.90;99.90
5429;DHT22;2737;52.386;9.980;2023-04-07T06:44:31;4.70;99.90
5429;DHT22;2737;52.386;9.980;2023-04-07T06:46:58;4.70;99.90
5429;DHT22;2737;52.386;9.980;2023-04-07T06:49:25;4.70;99.90
5429;DHT22;2737;52.386;9.980;2023-04-07T06:51:52;4.70;99.90
5429;DHT22;2737;52.386;9.980;2023-04-07T06:54:20;4.70;99.90
5429;DHT22;2737;52.386;9.980;2023-04-07T06:56:47;4.70;99.90
5429;DHT22;2737;52.386;9.980;2023-04-07T06:59:15;4.80;99.90
5429;DHT22;2737;52.386;9.980;2023-04-07T07:01:42;5.00;99.90
5429;DHT22;2737;52.386;9.980;2023-04-07T07:04:09;5.00;99.90
5429;DHT22;2737;52.386;9.980;2023-04-07T07:06:36;5.10;99.90
5429;DHT22;2737;52.386;9.980;2023-04-07T07:09:03;5.30;99.90
5429;DHT22;2737;52.386;9.980;2023-04-07T07:11:32;5.50;99.90
5429;DHT22;2737;52.386;9.980;2023-04-07T07:13:59;5.70;99.90
5429;DHT22;2737;52.386;9.980;2023-04-07T07:16:26;5.80;99.90
5429;DHT22;2737;52.386;9.980;2023-04-07T07:18:53;6.00;99.90
5429;DHT22;2737;52.386;9.980;2023-04-07T07:21:20;6.20;99.90
5429;DHT22;2737;52.386;9.980;2023-04-07T07:23:47;6.50;99.90
5429;DHT22;2737;52.386;9.980;2023-04-07T07:26:14;6.70;99.90
5429;DHT22;2737;52.386;9.980;2023-04-07T07:28:42;6.80;99.90
5429;DHT22;2737;52.386;9.980;2023-04-07T07:31:10;6.80;99.90
5429;DHT22;2737;52.386;9.980;2023-04-07T07:33:40;6.90;99.90
5429;DHT22;2737;52.386;9.980;2023-04-07T07:36:08;7.00;99.90
5429;DHT22;2737;52.386;9.980;2023-04-07T07:38:35;7.10;99.90
5429;DHT22;2737;52.386;9.980;2023-04-07T07:41:03;7.10;99.90
5429;DHT22;2737;52.386;9.980;2023-04-07T07:43:30;7.00;99.90
5429;DHT22;2737;52.386;9.980;2023-04-07T07:45:59;6.90;99.90
5429;DHT22;2737;52.386;9.980;2023-04-07T07:48:26;7.00;99.90
5429;DHT22;2737;52.386;9.980;2023-04-07T07:50:53;7.10;99.90
5429;DHT22;2737;52.386;9.980;2023-04-07T07:53:21;7.10;99.90
5429;DHT22;2737;52.386;9.980;2023-04-07T07:55:48;7.20;99.90
5429;DHT22;2737;52.386;9.980;2023-04-07T07:58:16;7.30;99.90
5429;DHT22;2737;52.386;9.980;2023-04-07T08:00:43;7.30;99.90
5429;DHT22;2737;52.386;9.980;2023-04-07T08:03:11;7.40;99.90
5429;DHT22;2737;52.386;9.980;2023-04-07T08:05:38;7.50;99.90
5429;DHT22;2737;52.386;9.980;2023-04-07T08:08:05;7.60;99.90
5429;DHT22;2737;52.386;9.980;2023-04-07T08:10:32;7.70;99.90
5429;DHT22;2737;52.386;9.980;2023-04-07T08:12:59;7.90;99.90
5429;DHT22;2737;52.386;9.980;2023-04-07T08:15:26;8.00;99.90
5429;DHT22;2737;52.386;9.980;2023-04-07T08:17:53;8.20;99.90
5429;DHT22;2737;52.386;9.980;2023-04-07T08:20:22;8.30;99.90
5429;DHT22;2737;52.386;9.980;2023-04-07T08:22:49;8.50;99.90
5429;DHT22;2737;52.386;9.980;2023-04-07T08:25:17;8.60;99.90
5429;DHT22;2737;52.386;9.980;2023-04-07T08:27:45;8.70;99.90
5429;DHT22;2737;52.386;9.980;2023-04-07T08:30:13;8.70;99.90
5429;DHT22;2737;52.386;9.980;2023-04-07T08:32:41;8.70;99.90
5429;DHT22;2737;52.386;9.980;2023-04-07T08:35:09;8.80;99.90
5429;DHT22;2737;52.386;9.980;2023-04-07T08:37:38;8.90;99.90
5429;DHT22;2737;52.386;9.980;2023-04-07T08:40:09;9.00;99.90
5429;DHT22;2737;52.386;9.980;2023-04-07T08:42:40;9.00;99.90
5429;DHT22;2737;52.386;9.980;2023-04-07T08:45:08;9.00;99.90
5429;DHT22;2737;52.386;9.980;2023-04-07T08:47:36;9.00;99.90
5429;DHT22;2737;52.386;9.980;2023-04-07T08:50:06;9.00;99.90
5429;DHT22;2737;52.386;9.980;2023-04-07T08:52:37;9.20;99.90
5429;DHT22;2737;52.386;9.980;2023-04-07T08:55:08;9.30;99.90
5429;DHT22;2737;52.386;9.980;2023-04-07T08:57:35;9.50;99.90
5429;DHT22;2737;52.386;9.980;2023-04-07T09:00:03;9.50;98.70
5429;DHT22;2737;52.386;9.980;2023-04-07T09:02:32;9.60;98.40
5429;DHT22;2737;52.386;9.980;2023-04-07T09:05:01;9.70;97.70
5429;DHT22;2737;52.386;9.980;2023-04-07T09:07:30;9.70;98.10
5429;DHT22;2737;52.386;9.980;2023-04-07T09:09:57;9.90;98.10
5429;DHT22;2737;52.386;9.980;2023-04-07T09:12:27;10.00;97.40
5429;DHT22;2737;52.386;9.980;2023-04-07T09:14:55;9.90;97.40
5429;DHT22;2737;52.386;9.980;2023-04-07T09:17:24;9.90;97.20
5429;DHT22;2737;52.386;9.980;2023-04-07T09:19:52;9.90;97.20
5429;DHT22;2737;52.386;9.980;2023-04-07T09:22:34;9.90;97.30
5429;DHT22;2737;52.386;9.980;2023-04-07T09:25:12;10.10;97.30
5429;DHT22;2737;52.386;9.980;2023-04-07T09:27:56;10.20;96.30
5429;DHT22;2737;52.386;9.980;2023-04-07T09:30:24;10.20;96.50
5429;DHT22;2737;52.386;9.980;2023-04-07T09:32:51;10.20;96.20
5429;DHT22;2737;52.386;9.980;2023-04-07T09:35:18;10.20;96.60
5429;DHT22;2737;52.386;9.980;2023-04-07T09:38:01;10.30;96.40
5429;DHT22;2737;52.386;9.980;2023-04-07T09:40:29;10.30;96.40
5429;DHT22;2737;52.386;9.980;2023-04-07T09:42:58;10.30;95.70
5429;DHT22;2737;52.386;9.980;2023-04-07T09:45:26;10.40;95.30
5429;DHT22;2737;52.386;9.980;2023-04-07T09:47:53;10.40;95.20
5429;DHT22;2737;52.386;9.980;2023-04-07T09:50:30;10.30;94.80
5429;DHT22;2737;52.386;9.980;2023-04-07T09:52:59;10.40;95.10
5429;DHT22;2737;52.386;9.980;2023-04-07T09:55:27;10.40;94.90
5429;DHT22;2737;52.386;9.980;2023-04-07T09:57:54;10.40;95.00
5429;DHT22;2737;52.386;9.980;2023-04-07T10:00:23;10.50;95.20
5429;DHT22;2737;52.386;9.980;2023-04-07T10:02:51;10.50;95.00
5429;DHT22;2737;52.386;9.980;2023-04-07T10:05:19;10.60;94.30
5429;DHT22;2737;52.386;9.980;2023-04-07T10:07:47;10.60;95.00
5429;DHT22;2737;52.386;9.980;2023-04-07T10:10:14;10.60;93.50
5429;DHT22;2737;52.386;9.980;2023-04-07T10:12:41;10.60;94.50
5429;DHT22;2737;52.386;9.980;2023-04-07T10:15:12;10.60;93.10
5429;DHT22;2737;52.386;9.980;2023-04-07T10:17:45;10.50;93.80
5429;DHT22;2737;52.386;9.980;2023-04-07T10:20:13;10.50;92.70
5429;DHT22;2737;52.386;9.980;2023-04-07T10:22:41;10.50;93.40
5429;DHT22;2737;52.386;9.980;2023-04-07T10:25:13;10.50;93.60
5429;DHT22;2737;52.386;9.980;2023-04-07T10:27:44;10.60;93.80
5429;DHT22;2737;52.386;9.980;2023-04-07T10:30:19;10.70;94.00
5429;DHT22;2737;52.386;9.980;2023-04-07T10:32:49;10.80;93.20
5429;DHT22;2737;52.386;9.980;2023-04-07T10:35:17;10.80;92.80
5429;DHT22;2737;52.386;9.980;2023-04-07T10:38:09;10.70;92.80
5429;DHT22;2737;52.386;9.980;2023-04-07T10:40:39;10.80;93.20
5429;DHT22;2737;52.386;9.980;2023-04-07T10:43:06;10.90;93.80
5429;DHT22;2737;52.386;9.980;2023-04-07T10:45:55;11.00;93.00
5429;DHT22;2737;52.386;9.980;2023-04-07T10:48:25;10.90;93.00
5429;DHT22;2737;52.386;9.980;2023-04-07T10:51:14;10.90;92.30
5429;DHT22;2737;52.386;9.980;2023-04-07T10:57:07;10.90;92.80
5429;DHT22;2737;52.386;9.980;2023-04-07T10:59:37;11.00;93.30
5429;DHT22;2737;52.386;9.980;2023-04-07T11:02:29;11.00;93.40
5429;DHT22;2737;52.386;9.980;2023-04-07T11:04:58;11.00;93.50
5429;DHT22;2737;52.386;9.980;2023-04-07T11:07:44;11.10;94.00
5429;DHT22;2737;52.386;9.980;2023-04-07T11:10:12;11.20;93.50
5429;DHT22;2737;52.386;9.980;2023-04-07T11:12:40;11.20;93.60
5429;DHT22;2737;52.386;9.980;2023-04-07T11:15:18;11.20;93.60
5429;DHT22;2737;52.386;9.980;2023-04-07T11:17:45;11.20;93.90
5429;DHT22;2737;52.386;9.980;2023-04-07T11:20:13;11.20;94.00
5429;DHT22;2737;52.386;9.980;2023-04-07T11:22:41;11.10;93.60
5429;DHT22;2737;52.386;9.980;2023-04-07T11:25:20;11.30;95.10
5429;DHT22;2737;52.386;9.980;2023-04-07T11:27:52;11.30;93.80
5429;DHT22;2737;52.386;9.980;2023-04-07T11:30:20;11.30;93.90
5429;DHT22;2737;52.386;9.980;2023-04-07T11:32:50;11.20;94.10
5429;DHT22;2737;52.386;9.980;2023-04-07T11:35:18;11.20;94.20
5429;DHT22;2737;52.386;9.980;2023-04-07T11:37:46;11.20;93.70
5429;DHT22;2737;52.386;9.980;2023-04-07T11:40:13;11.30;93.20
5429;DHT22;2737;52.386;9.980;2023-04-07T11:42:57;11.30;93.20
5429;DHT22;2737;52.386;9.980;2023-04-07T11:45:24;11.20;93.00
5429;DHT22;2737;52.386;9.980;2023-04-07T11:47:51;11.20;92.90
5429;DHT22;2737;52.386;9.980;2023-04-07T11:50:37;11.20;93.10
5429;DHT22;2737;52.386;9.980;2023-04-07T11:53:04;11.30;93.00
5429;DHT22;2737;52.386;9.980;2023-04-07T11:55:31;11.20;93.00
5429;DHT22;2737;52.386;9.980;2023-04-07T11:58:05;11.30;92.90
5429;DHT22;2737;52.386;9.980;2023-04-07T12:00:34;11.40;93.30
5429;DHT22;2737;52.386;9.980;2023-04-07T12:03:11;11.40;92.50
5429;DHT22;2737;52.386;9.980;2023-04-07T12:05:44;11.40;93.00
5429;DHT22;2737;52.386;9.980;2023-04-07T12:08:12;11.40;92.70
5429;DHT22;2737;52.386;9.980;2023-04-07T12:10:39;11.40;93.10
5429;DHT22;2737;52.386;9.980;2023-04-07T12:13:07;11.60;93.20
5429;DHT22;2737;52.386;9.980;2023-04-07T12:15:34;11.50;92.40
5429;DHT22;2737;52.386;9.980;2023-04-07T12:18:02;11.60;92.90
5429;DHT22;2737;52.386;9.980;2023-04-07T12:20:29;11.60;92.60
5429;DHT22;2737;52.386;9.980;2023-04-07T12:22:58;11.60;92.90
5429;DHT22;2737;52.386;9.980;2023-04-07T12:25:25;11.70;92.80
5429;DHT22;2737;52.386;9.980;2023-04-07T12:27:53;11.70;92.90
5429;DHT22;2737;52.386;9.980;2023-04-07T12:30:20;11.80;92.60
5429;DHT22;2737;52.386;9.980;2023-04-07T12:32:47;11.70;91.70
5429;DHT22;2737;52.386;9.980;2023-04-07T12:35:14;11.70;91.90
5429;DHT22;2737;52.386;9.980;2023-04-07T12:37:41;11.60;92.30
5429;DHT22;2737;52.386;9.980;2023-04-07T12:40:10;11.50;92.70
5429;DHT22;2737;52.386;9.980;2023-04-07T12:42:38;11.60;93.00
5429;DHT22;2737;52.386;9.980;2023-04-07T12:45:06;11.70;92.00
5429;DHT22;2737;52.386;9.980;2023-04-07T12:47:33;11.70;92.30
5429;DHT22;2737;52.386;9.980;2023-04-07T12:50:00;11.70;91.90
5429;DHT22;2737;52.386;9.980;2023-04-07T12:52:28;11.50;91.90
5429;DHT22;2737;52.386;9.980;2023-04-07T12:54:55;11.50;92.70
5429;DHT22;2737;52.386;9.980;2023-04-07T12:57:24;11.50;92.40
5429;DHT22;2737;52.386;9.980;2023-04-07T12:59:52;11.60;92.80
5429;DHT22;2737;52.386;9.980;2023-04-07T13:02:19;11.80;92.50
5429;DHT22;2737;52.386;9.980;2023-04-07T13:04:46;11.80;92.00
5429;DHT22;2737;52.386;9.980;2023-04-07T13:07:13;11.80;92.40
5429;DHT22;2737;52.386;9.980;2023-04-07T13:09:41;11.70;92.40
5429;DHT22;2737;52.386;9.980;2023-04-07T13:12:09;11.70;91.60
5429;DHT22;2737;52.386;9.980;2023-04-07T13:14:38;11.80;92.40
5429;DHT22;2737;52.386;9.980;2023-04-07T13:17:07;11.90;92.50
5429;DHT22;2737;52.386;9.980;2023-04-07T13:19:34;11.90;92.60
5429;DHT22;2737;52.386;9.980;2023-04-07T13:22:01;11.80;91.80
5429;DHT22;2737;52.386;9.980;2023-04-07T13:24:28;11.80;91.90
5429;DHT22;2737;52.386;9.980;2023-04-07T13:26:55;11.70;91.70
5429;DHT22;2737;52.386;9.980;2023-04-07T13:29:23;11.70;92.30
5429;DHT22;2737;52.386;9.980;2023-04-07T13:31:51;11.80;92.50
5429;DHT22;2737;52.386;9.980;2023-04-07T13:34:18;11.70;92.30
5429;DHT22;2737;52.386;9.980;2023-04-07T13:36:45;11.80;92.20
5429;DHT22;2737;52.386;9.980;2023-04-07T13:39:12;11.80;92.60
5429;DHT22;2737;52.386;9.980;2023-04-07T13:41:40;11.90;92.40
5429;DHT22;2737;52.386;9.980;2023-04-07T13:44:08;11.90;92.50
5429;DHT22;2737;52.386;9.980;2023-04-07T13:46:35;11.90;92.50
5429;DHT22;2737;52.386;9.980;2023-04-07T13:49:04;11.90;92.00
5429;DHT22;2737;52.386;9.980;2023-04-07T13:51:31;11.90;91.90
5429;DHT22;2737;52.386;9.980;2023-04-07T13:53:58;11.90;92.10
5429;DHT22;2737;52.386;9.980;2023-04-07T13:56:25;11.80;91.50
5429;DHT22;2737;52.386;9.980;2023-04-07T13:58:52;11.90;91.40
5429;DHT22;2737;52.386;9.980;2023-04-07T14:01:19;11.90;91.20
5429;DHT22;2737;52.386;9.980;2023-04-07T14:03:47;12.00;91.70
5429;DHT22;2737;52.386;9.980;2023-04-07T14:06:16;12.00;91.50
5429;DHT22;2737;52.386;9.980;2023-04-07T14:08:43;12.00;90.60
5429;DHT22;2737;52.386;9.980;2023-04-07T14:11:10;12.00;91.10
5429;DHT22;2737;52.386;9.980;2023-04-07T14:13:37;12.00;90.30
5429;DHT22;2737;52.386;9.980;2023-04-07T14:16:04;12.10;90.40
5429;DHT22;2737;52.386;9.980;2023-04-07T14:18:32;12.00;88.70
5429;DHT22;2737;52.386;9.980;2023-04-07T14:20:59;12.00;89.70
5429;DHT22;2737;52.386;9.980;2023-04-07T14:23:29;12.00;90.70
5429;DHT22;2737;52.386;9.980;2023-04-07T14:25:56;12.00;89.80
5429;DHT22;2737;52.386;9.980;2023-04-07T14:28:23;12.00;90.00
5429;DHT22;2737;52.386;9.980;2023-04-07T14:30:50;12.00;90.40
5429;DHT22;2737;52.386;9.980;2023-04-07T14:33:19;12.00;90.00
5429;DHT22;2737;52.386;9.980;2023-04-07T14:35:46;12.10;90.20
5429;DHT22;2737;52.386;9.980;2023-04-07T14:38:13;12.10;90.30
5429;DHT22;2737;52.386;9.980;2023-04-07T14:40:42;12.00;90.00
5429;DHT22;2737;52.386;9.980;2023-04-07T14:43:09;12.10;90.00
5429;DHT22;2737;52.386;9.980;2023-04-07T14:45:37;12.10;90.00
5429;DHT22;2737;52.386;9.980;2023-04-07T14:48:04;12.10;90.60
5429;DHT22;2737;52.386;9.980;2023-04-07T14:50:32;12.00;89.70
5429;DHT22;2737;52.386;9.980;2023-04-07T14:52:59;12.00;89.00
5429;DHT22;2737;52.386;9.980;2023-04-07T14:55:26;12.00;90.10
5429;DHT22;2737;52.386;9.980;2023-04-07T14:57:56;12.00;89.50
5429;DHT22;2737;52.386;9.980;2023-04-07T15:00:23;12.00;89.20
5429;DHT22;2737;52.386;9.980;2023-04-07T15:02:51;11.90;89.10
5429;DHT22;2737;52.386;9.980;2023-04-07T15:05:18;11.90;90.30
5429;DHT22;2737;52.386;9.980;2023-04-07T15:07:47;11.90;90.40
5429;DHT22;2737;52.386;9.980;2023-04-07T15:10:18;11.90;90.30
5429;DHT22;2737;52.386;9.980;2023-04-07T15:12:46;11.90;90.50
5429;DHT22;2737;52.386;9.980;2023-04-07T15:15:15;12.00;90.20
5429;DHT22;2737;52.386;9.980;2023-04-07T15:17:43;12.00;90.40
5429;DHT22;2737;52.386;9.980;2023-04-07T15:20:10;12.10;88.50
5429;DHT22;2737;52.386;9.980;2023-04-07T15:22:37;12.00;88.80
5429;DHT22;2737;52.386;9.980;2023-04-07T15:25:04;12.00;87.30
5429;DHT22;2737;52.386;9.980;2023-04-07T15:27:32;12.00;88.80
5429;DHT22;2737;52.386;9.980;2023-04-07T15:29:59;12.00;87.60
5429;DHT22;2737;52.386;9.980;2023-04-07T15:32:29;12.00;90.00
5429;DHT22;2737;52.386;9.980;2023-04-07T15:34:56;12.00;90.70
5429;DHT22;2737;52.386;9.980;2023-04-07T15:37:24;12.10;91.00
5429;DHT22;2737;52.386;9.980;2023-04-07T15:39:51;12.00;89.50
5429;DHT22;2737;52.386;9.980;2023-04-07T15:42:18;12.00;89.50
5429;DHT22;2737;52.386;9.980;2023-04-07T15:44:44;12.00;89.80
5429;DHT22;2737;52.386;9.980;2023-04-07T15:47:11;12.00;89.20
5429;DHT22;2737;52.386;9.980;2023-04-07T15:49:40;12.00;88.30
5429;DHT22;2737;52.386;9.980;2023-04-07T15:52:07;12.00;90.10
5429;DHT22;2737;52.386;9.980;2023-04-07T15:54:36;11.90;88.90
5429;DHT22;2737;52.386;9.980;2023-04-07T15:57:03;11.90;89.20
5429;DHT22;2737;52.386;9.980;2023-04-07T15:59:30;11.90;88.40
5429;DHT22;2737;52.386;9.980;2023-04-07T16:01:57;11.90;88.90
5429;DHT22;2737;52.386;9.980;2023-04-07T16:04:25;11.90;89.60
5429;DHT22;2737;52.386;9.980;2023-04-07T16:06:54;11.90;90.10
5429;DHT22;2737;52.386;9.980;2023-04-07T16:09:21;11.80;89.80
5429;DHT22;2737;52.386;9.980;2023-04-07T16:11:48;11.80;89.20
5429;DHT22;2737;52.386;9.980;2023-04-07T16:14:15;11.80;89.70
5429;DHT22;2737;52.386;9.980;2023-04-07T16:16:42;11.70;89.30
5429;DHT22;2737;52.386;9.980;2023-04-07T16:19:09;11.70;90.10
5429;DHT22;2737;52.386;9.980;2023-04-07T16:21:40;11.70;90.40
5429;DHT22;2737;52.386;9.980;2023-04-07T16:24:08;11.70;89.90